sensor_id;sensor_type;location;lat;lon;timestamp;temperature;humidity
22827;DHT22;11580;52.562;13.418;2024-01-27T00:00:33;10.10;28.20
22827;DHT22;11580;52.562;13.418;2024-01-27T00:03:00;10.10;28.00
22827;DHT22;11580;52.562;13.418;2024-01-27T00:05:28;10.20;28.10
22827;DHT22;11580;52.562;13.418;2024-01-27T00:07:54;10.20;28.20
22827;DHT22;11580;52.562;13.418;2024-01-27T00:10:21;10.20;28.10
22827;DHT22;11580;52.562;13.418;2024-01-27T00:12:48;10.30;28.00
22827;DHT22;11580;52.562;13.418;2024-01-27T00:15:15;10.20;28.00
22827;DHT22;11580;52.562;13.418;2024-01-27T00:17:44;10.20;27.90
22827;DHT22;11580;52.562;13.418;2024-01-27T00:20:11;10.20;27.50
22827;DHT22;11580;52.562;13.418;2024-01-27T00:22:39;10.10;27.60
22827;DHT22;11580;52.562;13.418;2024-01-27T00:25:06;10.10;27.20
22827;DHT22;11580;52.562;13.418;2024-01-27T00:27:33;10.10;27.20
22827;DHT22;11580;52.562;13.418;2024-01-27T00:30:01;10.00;27.00
22827;DHT22;11580;52.562;13.418;2024-01-27T00:32:28;10.00;27.20
22827;DHT22;11580;52.562;13.418;2024-01-27T00:34:57;9.90;27.90
22827;DHT22;11580;52.562;13.418;2024-01-27T00:37:24;9.90;28.00
22827;DHT22;11580;52.562;13.418;2024-01-27T00:39:52;9.90;28.10
22827;DHT22;11580;52.562;13.418;2024-01-27T00:42:19;9.80;28.10
22827;DHT22;11580;52.562;13.418;2024-01-27T00:44:49;9.80;28.10
22827;DHT22;11580;52.562;13.418;2024-01-27T00:47:17;9.80;28.10
22827;DHT22;11580;52.562;13.418;2024-01-27T00:49:44;9.80;28.20
22827;DHT22;11580;52.562;13.418;2024-01-27T00:52:12;9.80;28.10
22827;DHT22;11580;52.562;13.418;2024-01-27T00:54:40;9.80;28.10
22827;DHT22;11580;52.562;13.418;2024-01-27T00:57:07;9.80;28.30
22827;DHT22;11580;52.562;13.418;2024-01-27T00:59:34;9.80;28.20
22827;DHT22;11580;52.562;13.418;2024-01-27T01:02:02;9.80;28.20
22827;DHT22;11580;52.562;13.418;2024-01-27T01:04:29;9.80;28.20
22827;DHT22;11580;52.562;13.418;2024-01-27T01:06:57;9.80;28.00
22827;DHT22;11580;52.562;13.418;2024-01-27T01:09:25;9.80;28.00
22827;DHT22;11580;52.562;13.418;2024-01-27T01:11:52;9.90;27.70
22827;DHT22;11580;52.562;13.418;2024-01-27T01:14:20;9.80;27.80
22827;DHT22;11580;52.562;13.418;2024-01-27T01:16:47;9.90;27.90
22827;DHT22;11580;52.562;13.418;2024-01-27T01:19:14;9.90;27.90
22827;DHT22;11580;52.562;13.418;2024-01-27T01:21:41;9.90;27.90
22827;DHT22;11580;52.562;13.418;2024-01-27T01:24:09;10.00;27.20
22827;DHT22;11580;52.562;13.418;2024-01-27T01:26:37;10.00;27.10
22827;DHT22;11580;52.562;13.418;2024-01-27T01:29:05;10.00;27.40
22827;DHT22;11580;52.562;13.418;2024-01-27T01:31:32;10.10;26.60
22827;DHT22;11580;52.562;13.418;2024-01-27T01:33:59;10.10;26.60
22827;DHT22;11580;52.562;13.418;2024-01-27T01:36:26;10.00;26.50
22827;DHT22;11580;52.562;13.418;2024-01-27T01:38:54;10.00;26.50
22827;DHT22;11580;52.562;13.418;2024-01-27T01:41:21;10.00;26.50
22827;DHT22;11580;52.562;13.418;2024-01-27T01:43:49;10.00;26.50
22827;DHT22;11580;52.562;13.418;2024-01-27T01:46:17;9.90;27.10
22827;DHT22;11580;52.562;13.418;2024-01-27T01:48:44;9.90;27.10
22827;DHT22;11580;52.562;13.418;2024-01-27T01:51:12;9.90;27.10
22827;DHT22;11580;52.562;13.418;2024-01-27T01:53:40;9.80;27.10
22827;DHT22;11580;52.562;13.418;2024-01-27T01:56:08;9.80;27.10
22827;DHT22;11580;52.562;13.418;2024-01-27T01:58:35;9.80;27.10
22827;DHT22;11580;52.562;13.418;2024-01-27T02:01:04;9.80;27.10
22827;DHT22;11580;52.562;13.418;2024-01-27T02:03:31;9.70;27.00
22827;DHT22;11580;52.562;13.418;2024-01-27T02:05:58;9.70;27.10
22827;DHT22;11580;52.562;13.418;2024-01-27T02:08:25;9.70;27.30
22827;DHT22;11580;52.562;13.418;2024-01-27T02:10:53;9.70;27.50
22827;DHT22;11580;52.562;13.418;2024-01-27T02:13:21;9.70;27.60
22827;DHT22;11580;52.562;13.418;2024-01-27T02:15:50;9.70;27.60
22827;DHT22;11580;52.562;13.418;2024-01-27T02:18:19;9.70;27.60
22827;DHT22;11580;52.562;13.418;2024-01-27T02:20:46;9.70;27.80
22827;DHT22;11580;52.562;13.418;2024-01-27T02:23:13;9.70;27.70
22827;DHT22;11580;52.562;13.418;2024-01-27T02:25:42;9.80;27.90
22827;DHT22;11580;52.562;13.418;2024-01-27T02:28:09;9.80;27.90
22827;DHT22;11580;52.562;13.418;2024-01-27T02:30:38;9.80;27.90
22827;DHT22;11580;52.562;13.418;2024-01-27T02:33:05;9.80;27.90
22827;DHT22;11580;52.562;13.418;2024-01-27T02:35:32;9.90;28.40
22827;DHT22;11580;52.562;13.418;2024-01-27T02:38:03;9.90;27.80
22827;DHT22;11580;52.562;13.418;2024-01-27T02:40:30;9.70;27.50
22827;DHT22;11580;52.562;13.418;2024-01-27T02:42:59;9.90;27.80
22827;DHT22;11580;52.562;13.418;2024-01-27T02:45:26;10.00;27.10
22827;DHT22;11580;52.562;13.418;2024-01-27T02:47:53;10.00;27.30
22827;DHT22;11580;52.562;13.418;2024-01-27T02:50:20;10.00;27.40
22827;DHT22;11580;52.562;13.418;2024-01-27T02:52:47;10.00;27.20
22827;DHT22;11580;52.562;13.418;2024-01-27T02:55:15;10.00;27.20
22827;DHT22;11580;52.562;13.418;2024-01-27T02:57:42;10.00;27.20
22827;DHT22;11580;52.562;13.418;2024-01-27T03:00:11;10.00;27.30
22827;DHT22;11580;52.562;13.418;2024-01-27T03:02:39;10.10;27.40
22827;DHT22;11580;52.562;13.418;2024-01-27T03:05:06;10.00;27.40
22827;DHT22;11580;52.562;13.418;2024-01-27T03:07:34;10.00;27.30
22827;DHT22;11580;52.562;13.418;2024-01-27T03:10:01;10.00;27.90
22827;DHT22;11580;52.562;13.418;2024-01-27T03:12:29;10.10;27.40
22827;DHT22;11580;52.562;13.418;2024-01-27T03:14:58;10.10;27.50
22827;DHT22;11580;52.562;13.418;2024-01-27T03:17:26;10.10;27.40
22827;DHT22;11580;52.562;13.418;2024-01-27T03:19:54;10.10;27.30
22827;DHT22;11580;52.562;13.418;2024-01-27T03:22:21;10.10;28.00
22827;DHT22;11580;52.562;13.418;2024-01-27T03:24:48;10.10;27.40
22827;DHT22;11580;52.562;13.418;2024-01-27T03:27:17;10.10;27.30
22827;DHT22;11580;52.562;13.418;2024-01-27T03:29:44;10.10;27.30
22827;DHT22;11580;52.562;13.418;2024-01-27T03:32:11;10.10;27.30
22827;DHT22;11580;52.562;13.418;2024-01-27T03:34:44;10.10;27.20
22827;DHT22;11580;52.562;13.418;2024-01-27T03:37:11;10.10;27.60
22827;DHT22;11580;52.562;13.418;2024-01-27T03:39:41;10.10;27.10
22827;DHT22;11580;52.562;13.418;2024-01-27T03:42:09;10.00;26.90
22827;DHT22;11580;52.562;13.418;2024-01-27T03:44:36;10.00;27.00
22827;DHT22;11580;52.562;13.418;2024-01-27T03:47:03;10.00;27.00
22827;DHT22;11580;52.562;13.418;2024-01-27T03:49:30;10.00;26.90
22827;DHT22;11580;52.562;13.418;2024-01-27T03:51:59;9.90;27.50
22827;DHT22;11580;52.562;13.418;2024-01-27T03:54:26;9.80;27.40
22827;DHT22;11580;52.562;13.418;2024-01-27T03:56:54;9.70;27.40
22827;DHT22;11580;52.562;13.418;2024-01-27T03:59:21;9.60;28.00
22827;DHT22;11580;52.562;13.418;2024-01-27T04:01:48;9.60;27.50
22827;DHT22;11580;52.562;13.418;2024-01-27T04:04:16;9.50;27.60
22827;DHT22;11580;52.562;13.418;2024-01-27T04:06:43;9.40;27.60
22827;DHT22;11580;52.562;13.418;2024-01-27T04:09:11;9.30;28.30
22827;DHT22;11580;52.562;13.418;2024-01-27T04:11:39;9.20;27.90
22827;DHT22;11580;52.562;13.418;2024-01-27T04:14:06;9.10;28.00
22827;DHT22;11580;52.562;13.418;2024-01-27T04:16:34;9.00;28.10
22827;DHT22;11580;52.562;13.418;2024-01-27T04:19:02;9.00;28.30
22827;DHT22;11580;52.562;13.418;2024-01-27T04:21:29;8.90;28.50
22827;DHT22;11580;52.562;13.418;2024-01-27T04:23:56;8.80;28.50
22827;DHT22;11580;52.562;13.418;2024-01-27T04:26:25;8.80;28.50
22827;DHT22;11580;52.562;13.418;2024-01-27T04:28:52;8.70;28.40
22827;DHT22;11580;52.562;13.418;2024-01-27T04:31:19;8.70;28.50
22827;DHT22;11580;52.562;13.418;2024-01-27T04:33:47;8.60;29.30
22827;DHT22;11580;52.562;13.418;2024-01-27T04:36:14;8.60;29.00
22827;DHT22;11580;52.562;13.418;2024-01-27T04:38:43;8.60;29.20
22827;DHT22;11580;52.562;13.418;2024-01-27T04:41:10;8.60;29.40
22827;DHT22;11580;52.562;13.418;2024-01-27T04:43:39;8.70;30.00
22827;DHT22;11580;52.562;13.418;2024-01-27T04:46:06;8.70;29.50
22827;DHT22;11580;52.562;13.418;2024-01-27T04:48:33;8.80;29.60
22827;DHT22;11580;52.562;13.418;2024-01-27T04:51:00;8.80;30.00
22827;DHT22;11580;52.562;13.418;2024-01-27T04:53:27;8.90;29.60
22827;DHT22;11580;52.562;13.418;2024-01-27T04:55:54;8.90;29.60
22827;DHT22;11580;52.562;13.418;2024-01-27T04:58:22;9.00;29.70
22827;DHT22;11580;52.562;13.418;2024-01-27T05:00:50;9.00;29.60
22827;DHT22;11580;52.562;13.418;2024-01-27T05:03:17;9.10;29.70
22827;DHT22;11580;52.562;13.418;2024-01-27T05:05:44;9.10;30.00
22827;DHT22;11580;52.562;13.418;2024-01-27T05:08:12;9.20;29.60
22827;DHT22;11580;52.562;13.418;2024-01-27T05:10:39;9.20;30.00
22827;DHT22;11580;52.562;13.418;2024-01-27T05:13:06;9.20;29.40
22827;DHT22;11580;52.562;13.418;2024-01-27T05:15:33;9.20;29.90
22827;DHT22;11580;52.562;13.418;2024-01-27T05:18:02;9.30;29.40
22827;DHT22;11580;52.562;13.418;2024-01-27T05:20:29;9.30;29.30
22827;DHT22;11580;52.562;13.418;2024-01-27T05:22:56;9.30;29.30
22827;DHT22;11580;52.562;13.418;2024-01-27T05:25:23;9.30;29.30
22827;DHT22;11580;52.562;13.418;2024-01-27T05:27:50;9.20;29.20
22827;DHT22;11580;52.562;13.418;2024-01-27T05:30:18;9.20;29.90
22827;DHT22;11580;52.562;13.418;2024-01-27T05:32:45;9.20;29.50
22827;DHT22;11580;52.562;13.418;2024-01-27T05:35:13;9.20;29.50
22827;DHT22;11580;52.562;13.418;2024-01-27T05:37:41;9.10;29.50
22827;DHT22;11580;52.562;13.418;2024-01-27T05:40:08;9.10;29.60
22827;DHT22;11580;52.562;13.418;2024-01-27T05:42:36;9.10;29.60
22827;DHT22;11580;52.562;13.418;2024-01-27T05:45:07;9.10;30.20
22827;DHT22;11580;52.562;13.418;2024-01-27T05:47:35;9.10;29.70
22827;DHT22;11580;52.562;13.418;2024-01-27T05:50:03;9.20;29.70
22827;DHT22;11580;52.562;13.418;2024-01-27T05:52:34;9.20;29.80
22827;DHT22;11580;52.562;13.418;2024-01-27T05:55:01;9.10;29.70
22827;DHT22;11580;52.562;13.418;2024-01-27T05:57:32;9.20;29.90
22827;DHT22;11580;52.562;13.418;2024-01-27T05:59:59;9.20;30.00
22827;DHT22;11580;52.562;13.418;2024-01-27T06:02:26;9.20;30.00
22827;DHT22;11580;52.562;13.418;2024-01-27T06:04:53;9.20;30.00
22827;DHT22;11580;52.562;13.418;2024-01-27T06:07:21;9.30;30.80
22827;DHT22;11580;52.562;13.418;2024-01-27T06:09:49;9.30;30.00
22827;DHT22;11580;52.562;13.418;2024-01-27T06:12:16;9.40;30.00
22827;DHT22;11580;52.562;13.418;2024-01-27T06:14:44;9.40;30.00
22827;DHT22;11580;52.562;13.418;2024-01-27T06:17:12;9.40;30.60
22827;DHT22;11580;52.562;13.418;2024-01-27T06:19:42;9.50;29.90
22827;DHT22;11580;52.562;13.418;2024-01-27T06:22:09;9.50;29.90
22827;DHT22;11580;52.562;13.418;2024-01-27T06:24:41;9.50;29.90
22827;DHT22;11580;52.562;13.418;2024-01-27T06:27:10;9.60;30.20
22827;DHT22;11580;52.562;13.418;2024-01-27T06:29:38;9.60;29.70
22827;DHT22;11580;52.562;13.418;2024-01-27T06:32:07;9.60;29.80
22827;DHT22;11580;52.562;13.418;2024-01-27T06:34:34;9.60;30.20
22827;DHT22;11580;52.562;13.418;2024-01-27T06:37:01;9.60;29.60
22827;DHT22;11580;52.562;13.418;2024-01-27T06:39:29;9.60;29.50
22827;DHT22;11580;52.562;13.418;2024-01-27T06:41:56;9.60;29.50
22827;DHT22;11580;52.562;13.418;2024-01-27T06:44:25;9.60;29.50
22827;DHT22;11580;52.562;13.418;2024-01-27T06:46:52;9.60;29.50
22827;DHT22;11580;52.562;13.418;2024-01-27T06:49:19;9.60;29.60
22827;DHT22;11580;52.562;13.418;2024-01-27T06:51:47;9.70;29.70
22827;DHT22;11580;52.562;13.418;2024-01-27T06:54:14;9.60;29.60
22827;DHT22;11580;52.562;13.418;2024-01-27T06:56:41;9.60;29.70
22827;DHT22;11580;52.562;13.418;2024-01-27T06:59:08;9.70;29.90
22827;DHT22;11580;52.562;13.418;2024-01-27T07:01:37;9.70;30.00
22827;DHT22;11580;52.562;13.418;2024-01-27T07:04:04;9.70;30.00
22827;DHT22;11580;52.562;13.418;2024-01-27T07:06:31;9.70;30.00
22827;DHT22;11580;52.562;13.418;2024-01-27T07:08:58;9.70;30.70
22827;DHT22;11580;52.562;13.418;2024-01-27T07:11:26;9.80;30.10
22827;DHT22;11580;52.562;13.418;2024-01-27T07:13:53;9.80;30.20
22827;DHT22;11580;52.562;13.418;2024-01-27T07:16:20;9.90;30.10
22827;DHT22;11580;52.562;13.418;2024-01-27T07:18:48;9.90;30.10
22827;DHT22;11580;52.562;13.418;2024-01-27T07:21:15;9.90;30.70
22827;DHT22;11580;52.562;13.418;2024-01-27T07:23:43;10.00;29.30
22827;DHT22;11580;52.562;13.418;2024-01-27T07:26:11;10.00;29.80
22827;DHT22;11580;52.562;13.418;2024-01-27T07:28:38;10.00;29.20
22827;DHT22;11580;52.562;13.418;2024-01-27T07:31:05;10.10;29.80
22827;DHT22;11580;52.562;13.418;2024-01-27T07:33:34;10.10;29.30
22827;DHT22;11580;52.562;13.418;2024-01-27T07:36:03;10.10;29.30
22827;DHT22;11580;52.562;13.418;2024-01-27T07:38:31;10.10;29.20
22827;DHT22;11580;52.562;13.418;2024-01-27T07:40:58;10.10;29.30
22827;DHT22;11580;52.562;13.418;2024-01-27T07:43:26;10.10;29.20
22827;DHT22;11580;52.562;13.418;2024-01-27T07:45:53;10.20;29.30
22827;DHT22;11580;52.562;13.418;2024-01-27T07:48:20;10.20;29.20
22827;DHT22;11580;52.562;13.418;2024-01-27T07:50:48;10.20;29.80
22827;DHT22;11580;52.562;13.418;2024-01-27T07:53:17;10.20;29.30
22827;DHT22;11580;52.562;13.418;2024-01-27T07:55:44;10.30;29.20
22827;DHT22;11580;52.562;13.418;2024-01-27T07:58:11;10.30;29.20
22827;DHT22;11580;52.562;13.418;2024-01-27T08:00:39;10.30;29.10
22827;DHT22;11580;52.562;13.418;2024-01-27T08:03:06;10.30;29.10
22827;DHT22;11580;52.562;13.418;2024-01-27T08:05:33;10.40;29.20
22827;DHT22;11580;52.562;13.418;2024-01-27T08:08:00;10.40;29.80
22827;DHT22;11580;52.562;13.418;2024-01-27T08:10:28;10.40;29.10
22827;DHT22;11580;52.562;13.418;2024-01-27T08:12:56;10.60;29.00
22827;DHT22;11580;52.562;13.418;2024-01-27T08:15:23;10.50;29.10
22827;DHT22;11580;52.562;13.418;2024-01-27T08:17:50;10.50;29.50
22827;DHT22;11580;52.562;13.418;2024-01-27T08:20:17;10.50;29.60
22827;DHT22;11580;52.562;13.418;2024-01-27T08:22:44;10.60;29.20
22827;DHT22;11580;52.562;13.418;2024-01-27T08:25:11;10.60;29.20
22827;DHT22;11580;52.562;13.418;2024-01-27T08:27:40;10.60;29.20
22827;DHT22;11580;52.562;13.418;2024-01-27T08:30:08;10.70;29.00
22827;DHT22;11580;52.562;13.418;2024-01-27T08:32:36;10.70;29.00
22827;DHT22;11580;52.562;13.418;2024-01-27T08:35:04;10.80;29.10
22827;DHT22;11580;52.562;13.418;2024-01-27T08:37:31;10.80;29.10
22827;DHT22;11580;52.562;13.418;2024-01-27T08:40:05;10.90;29.20
22827;DHT22;11580;52.562;13.418;2024-01-27T08:42:33;10.90;29.10
22827;DHT22;11580;52.562;13.418;2024-01-27T08:45:02;11.00;29.20
22827;DHT22;11580;52.562;13.418;2024-01-27T08:47:30;11.00;29.20
22827;DHT22;11580;52.562;13.418;2024-01-27T08:49:57;11.20;29.30
22827;DHT22;11580;52.562;13.418;2024-01-27T08:52:24;11.10;29.10
22827;DHT22;11580;52.562;13.418;2024-01-27T08:54:52;11.10;29.20
22827;DHT22;11580;52.562;13.418;2024-01-27T08:57:19;11.20;29.40
22827;DHT22;11580;52.562;13.418;2024-01-27T08:59:47;11.20;28.80
22827;DHT22;11580;52.562;13.418;2024-01-27T09:02:15;11.20;28.70
22827;DHT22;11580;52.562;13.418;2024-01-27T09:04:42;11.30;29.10
22827;DHT22;11580;52.562;13.418;2024-01-27T09:07:10;11.30;28.70
22827;DHT22;11580;52.562;13.418;2024-01-27T09:09:38;11.30;28.60
22827;DHT22;11580;52.562;13.418;2024-01-27T09:12:05;11.40;28.60
22827;DHT22;11580;52.562;13.418;2024-01-27T09:14:32;11.40;28.50
22827;DHT22;11580;52.562;13.418;2024-01-27T09:17:00;11.50;28.40
22827;DHT22;11580;52.562;13.418;2024-01-27T09:19:29;11.50;28.80
22827;DHT22;11580;52.562;13.418;2024-01-27T09:21:56;11.50;28.10
22827;DHT22;11580;52.562;13.418;2024-01-27T09:24:23;11.50;28.70
22827;DHT22;11580;52.562;13.418;2024-01-27T09:26:50;11.60;28.20
22827;DHT22;11580;52.562;13.418;2024-01-27T09:29:17;11.60;28.30
22827;DHT22;11580;52.562;13.418;2024-01-27T09:31:46;11.60;28.10
22827;DHT22;11580;52.562;13.418;2024-01-27T09:34:13;11.60;28.10
22827;DHT22;11580;52.562;13.418;2024-01-27T09:36:42;11.70;28.30
22827;DHT22;11580;52.562;13.418;2024-01-27T09:39:09;11.70;28.20
22827;DHT22;11580;52.562;13.418;2024-01-27T09:41:36;11.80;28.30
22827;DHT22;11580;52.562;13.418;2024-01-27T09:44:05;11.90;28.10
22827;DHT22;11580;52.562;13.418;2024-01-27T09:46:32;11.80;28.10
22827;DHT22;11580;52.562;13.418;2024-01-27T09:49:00;11.90;28.70
22827;DHT22;11580;52.562;13.418;2024-01-27T09:51:30;11.90;27.90
22827;DHT22;11580;52.562;13.418;2024-01-27T09:53:59;12.00;28.10
22827;DHT22;11580;52.562;13.418;2024-01-27T09:56:26;12.00;27.90
22827;DHT22;11580;52.562;13.418;2024-01-27T09:58:54;12.10;27.70
22827;DHT22;11580;52.562;13.418;2024-01-27T10:01:24;12.10;27.50
22827;DHT22;11580;52.562;13.418;2024-01-27T10:03:54;12.10;27.40
22827;DHT22;11580;52.562;13.418;2024-01-27T10:06:22;12.10;27.50
22827;DHT22;11580;52.562;13.418;2024-01-27T10:08:53;12.20;27.50
22827;DHT22;11580;52.562;13.418;2024-01-27T10:11:23;12.20;27.40
22827;DHT22;11580;52.562;13.418;2024-01-27T10:13:56;12.20;27.40
22827;DHT22;11580;52.562;13.418;2024-01-27T10:16:25;12.20;27.20
22827;DHT22;11580;52.562;13.418;2024-01-27T10:18:59;12.30;27.30
22827;DHT22;11580;52.562;13.418;2024-01-27T10:21:27;12.30;27.80
22827;DHT22;11580;52.562;13.418;2024-01-27T10:23:54;12.30;27.80
22827;DHT22;11580;52.562;13.418;2024-01-27T10:26:23;12.40;27.60
22827;DHT22;11580;52.562;13.418;2024-01-27T10:28:54;12.40;27.00
22827;DHT22;11580;52.562;13.418;2024-01-27T10:31:26;12.40;27.00
22827;DHT22;11580;52.562;13.418;2024-01-27T10:33:54;12.40;26.50
22827;DHT22;11580;52.562;13.418;2024-01-27T10:36:22;12.50;27.00
22827;DHT22;11580;52.562;13.418;2024-01-27T10:38:49;12.50;27.20
22827;DHT22;11580;52.562;13.418;2024-01-27T10:41:23;12.50;27.10
22827;DHT22;11580;52.562;13.418;2024-01-27T10:43:53;12.60;27.10
22827;DHT22;11580;52.562;13.418;2024-01-27T10:46:21;12.60;26.70
22827;DHT22;11580;52.562;13.418;2024-01-27T10:48:50;12.60;26.80
22827;DHT22;11580;52.562;13.418;2024-01-27T10:51:23;12.60;26.70
22827;DHT22;11580;52.562;13.418;2024-01-27T10:54:01;12.70;26.60
22827;DHT22;11580;52.562;13.418;2024-01-27T10:56:32;12.70;26.60
22827;DHT22;11580;52.562;13.418;2024-01-27T10:59:00;12.70;26.70
22827;DHT22;11580;52.562;13.418;2024-01-27T11:01:29;12.70;26.80
22827;DHT22;11580;52.562;13.418;2024-01-27T11:03:59;12.70;26.80
22827;DHT22;11580;52.562;13.418;2024-01-27T11:06:29;12.70;26.90
22827;DHT22;11580;52.562;13.418;2024-01-27T11:09:01;12.70;27.50
22827;DHT22;11580;52.562;13.418;2024-01-27T11:11:32;12.70;27.20
22827;DHT22;11580;52.562;13.418;2024-01-27T11:14:00;12.70;27.00
22827;DHT22;11580;52.562;13.418;2024-01-27T11:16:27;12.80;26.50
22827;DHT22;11580;52.562;13.418;2024-01-27T11:18:55;12.80;26.60
22827;DHT22;11580;52.562;13.418;2024-01-27T11:21:22;12.80;26.70
22827;DHT22;11580;52.562;13.418;2024-01-27T11:23:49;12.80;26.90
22827;DHT22;11580;52.562;13.418;2024-01-27T11:26:19;12.80;26.70
22827;DHT22;11580;52.562;13.418;2024-01-27T11:28:49;12.80;26.40
22827;DHT22;11580;52.562;13.418;2024-01-27T11:31:18;12.80;26.10
22827;DHT22;11580;52.562;13.418;2024-01-27T11:33:48;12.80;26.10
22827;DHT22;11580;52.562;13.418;2024-01-27T11:36:22;12.80;25.90
22827;DHT22;11580;52.562;13.418;2024-01-27T11:38:50;12.80;25.70
22827;DHT22;11580;52.562;13.418;2024-01-27T11:41:25;12.80;26.20
22827;DHT22;11580;52.562;13.418;2024-01-27T11:43:55;12.80;25.80
22827;DHT22;11580;52.562;13.418;2024-01-27T11:46:25;12.80;26.30
22827;DHT22;11580;52.562;13.418;2024-01-27T11:48:52;12.80;26.50
22827;DHT22;11580;52.562;13.418;2024-01-27T11:51:20;12.80;26.40
22827;DHT22;11580;52.562;13.418;2024-01-27T11:53:48;12.80;26.50
22827;DHT22;11580;52.562;13.418;2024-01-27T11:56:16;12.90;26.40
22827;DHT22;11580;52.562;13.418;2024-01-27T11:58:47;12.90;26.30
22827;DHT22;11580;52.562;13.418;2024-01-27T12:01:16;12.90;25.60
22827;DHT22;11580;52.562;13.418;2024-01-27T12:03:43;12.90;26.50
22827;DHT22;11580;52.562;13.418;2024-01-27T12:06:11;13.00;26.20
22827;DHT22;11580;52.562;13.418;2024-01-27T12:08:40;12.80;26.30
22827;DHT22;11580;52.562;13.418;2024-01-27T12:11:12;12.80;26.40
22827;DHT22;11580;52.562;13.418;2024-01-27T12:13:40;12.80;26.40
22827;DHT22;11580;52.562;13.418;2024-01-27T12:16:08;12.80;26.90
22827;DHT22;11580;52.562;13.418;2024-01-27T12:18:37;12.80;26.40
22827;DHT22;11580;52.562;13.418;2024-01-27T12:21:04;12.80;26.30
22827;DHT22;11580;52.562;13.418;2024-01-27T12:23:31;12.80;26.40
22827;DHT22;11580;52.562;13.418;2024-01-27T12:25:58;12.80;26.50
22827;DHT22;11580;52.562;13.418;2024-01-27T12:28:27;12.80;27.00
22827;DHT22;11580;52.562;13.418;2024-01-27T12:30:55;12.80;26.50
22827;DHT22;11580;52.562;13.418;2024-01-27T12:33:22;12.80;27.00
22827;DHT22;11580;52.562;13.418;2024-01-27T12:35:52;12.80;26.40
22827;DHT22;11580;52.562;13.418;2024-01-27T12:38:21;12.90;26.10
22827;DHT22;11580;52.562;13.418;2024-01-27T12:40:48;12.80;26.60
22827;DHT22;11580;52.562;13.418;2024-01-27T12:43:16;12.80;26.10
22827;DHT22;11580;52.562;13.418;2024-01-27T12:45:43;12.70;26.20
22827;DHT22;11580;52.562;13.418;2024-01-27T12:48:10;12.70;25.80
22827;DHT22;11580;52.562;13.418;2024-01-27T12:50:37;12.70;25.90
22827;DHT22;11580;52.562;13.418;2024-01-27T12:53:06;12.60;25.80
22827;DHT22;11580;52.562;13.418;2024-01-27T12:55:33;12.60;25.90
22827;DHT22;11580;52.562;13.418;2024-01-27T12:58:00;12.60;26.20
22827;DHT22;11580;52.562;13.418;2024-01-27T13:00:28;12.60;26.10
22827;DHT22;11580;52.562;13.418;2024-01-27T13:02:55;12.70;26.10
22827;DHT22;11580;52.562;13.418;2024-01-27T13:05:22;12.70;25.50
22827;DHT22;11580;52.562;13.418;2024-01-27T13:07:49;12.70;25.50
22827;DHT22;11580;52.562;13.418;2024-01-27T13:10:18;12.60;25.50
22827;DHT22;11580;52.562;13.418;2024-01-27T13:12:45;12.50;25.50
22827;DHT22;11580;52.562;13.418;2024-01-27T13:15:12;12.50;25.70
22827;DHT22;11580;52.562;13.418;2024-01-27T13:17:40;12.40;25.80
22827;DHT22;11580;52.562;13.418;2024-01-27T13:20:08;12.40;26.00
22827;DHT22;11580;52.562;13.418;2024-01-27T13:22:36;12.30;26.10
22827;DHT22;11580;52.562;13.418;2024-01-27T13:25:04;12.30;26.10
22827;DHT22;11580;52.562;13.418;2024-01-27T13:27:33;12.40;26.30
22827;DHT22;11580;52.562;13.418;2024-01-27T13:30:00;12.40;26.30
22827;DHT22;11580;52.562;13.418;2024-01-27T13:32:27;12.30;26.30
22827;DHT22;11580;52.562;13.418;2024-01-27T13:34:54;12.30;26.30
22827;DHT22;11580;52.562;13.418;2024-01-27T13:37:22;12.40;26.40
22827;DHT22;11580;52.562;13.418;2024-01-27T13:39:49;12.30;26.30
22827;DHT22;11580;52.562;13.418;2024-01-27T13:42:16;12.30;26.30
22827;DHT22;11580;52.562;13.418;2024-01-27T13:44:44;12.30;26.40
22827;DHT22;11580;52.562;13.418;2024-01-27T13:47:13;12.20;26.30
22827;DHT22;11580;52.562;13.418;2024-01-27T13:49:40;12.20;27.10
22827;DHT22;11580;52.562;13.418;2024-01-27T13:52:07;12.20;27.20
22827;DHT22;11580;52.562;13.418;2024-01-27T13:54:34;12.20;26.70
22827;DHT22;11580;52.562;13.418;2024-01-27T13:57:01;12.30;27.30
22827;DHT22;11580;52.562;13.418;2024-01-27T13:59:29;12.30;27.20
22827;DHT22;11580;52.562;13.418;2024-01-27T14:01:58;12.30;27.20
22827;DHT22;11580;52.562;13.418;2024-01-27T14:04:25;12.30;27.10
22827;DHT22;11580;52.562;13.418;2024-01-27T14:06:53;12.30;26.50
22827;DHT22;11580;52.562;13.418;2024-01-27T14:09:21;12.30;26.30
22827;DHT22;11580;52.562;13.418;2024-01-27T14:11:49;12.30;26.20
22827;DHT22;11580;52.562;13.418;2024-01-27T14:14:16;12.20;26.10
22827;DHT22;11580;52.562;13.418;2024-01-27T14:16:44;12.20;26.10
22827;DHT22;11580;52.562;13.418;2024-01-27T14:19:12;12.10;26.20
22827;DHT22;11580;52.562;13.418;2024-01-27T14:21:40;12.00;26.20
22827;DHT22;11580;52.562;13.418;2024-01-27T14:24:07;12.00;26.30
22827;DHT22;11580;52.562;13.418;2024-01-27T14:26:35;11.90;26.40
22827;DHT22;11580;52.562;13.418;2024-01-27T14:29:04;11.80;26.50
22827;DHT22;11580;52.562;13.418;2024-01-27T14:31:32;11.80;26.70
22827;DHT22;11580;52.562;13.418;2024-01-27T14:33:59;11.70;26.70
22827;DHT22;11580;52.562;13.418;2024-01-27T14:36:27;11.70;26.80
22827;DHT22;11580;52.562;13.418;2024-01-27T14:38:55;11.60;26.80
22827;DHT22;11580;52.562;13.418;2024-01-27T14:41:22;11.50;26.90
22827;DHT22;11580;52.562;13.418;2024-01-27T14:43:49;11.50;27.00
22827;DHT22;11580;52.562;13.418;2024-01-27T14:46:17;11.50;27.00
22827;DHT22;11580;52.562;13.418;2024-01-27T14:48:44;11.40;27.10
22827;DHT22;11580;52.562;13.418;2024-01-27T14:51:12;11.40;27.20
22827;DHT22;11580;52.562;13.418;2024-01-27T14:53:40;11.30;27.20
22827;DHT22;11580;52.562;13.418;2024-01-27T14:56:08;11.30;27.30
22827;DHT22;11580;52.562;13.418;2024-01-27T14:58:36;11.40;27.40
22827;DHT22;11580;52.562;13.418;2024-01-27T15:01:03;11.20;27.30
22827;DHT22;11580;52.562;13.418;2024-01-27T15:03:30;11.20;27.40
22827;DHT22;11580;52.562;13.418;2024-01-27T15:05:57;11.20;28.10
22827;DHT22;11580;52.562;13.418;2024-01-27T15:08:25;11.20;27.70
22827;DHT22;11580;52.562;13.418;2024-01-27T15:10:54;11.10;28.30
22827;DHT22;11580;52.562;13.418;2024-01-27T15:13:21;11.10;28.30
22827;DHT22;11580;52.562;13.418;2024-01-27T15:15:50;11.10;27.90
22827;DHT22;11580;52.562;13.418;2024-01-27T15:18:17;11.10;28.40
22827;DHT22;11580;52.562;13.418;2024-01-27T15:20:44;11.20;27.90
22827;DHT22;11580;52.562;13.418;2024-01-27T15:23:11;11.10;27.90